Time;durP1;ratioP1;P1;durP2;ratioP2;P2;SDS_P1;SDS_P2;PMS_P1;PMS_P2;Temp;Humidity;BMP_temperature;BMP_pressure;BME280_temperature;BME280_humidity;BME280_pressure;Samples;Min_cycle;Max_cycle;Signal;HPM_P1;HPM_P2
2023/10/05 00:00:36;;;;;;;21.70;13.95;;;;;;;17.22;85.58;95846.50;5003265;28;20603;-63
2023/10/05 00:03:05;;;;;;;14.73;11.85;;;;;;;17.23;85.19;95837.91;5002611;28;20239;-63
2023/10/05 00:05:35;;;;;;;17.40;12.43;;;;;;;17.14;85.44;95843.47;5007785;28;20243;-63
2023/10/05 00:08:03;;;;;;;15.15;11.75;;;;;;;17.06;85.71;95841.28;5019557;28;20227;-63
2023/10/05 00:10:33;;;;;;;17.70;13.10;;;;;;;17.15;85.54;95845.94;5007410;28;20219;-62
2023/10/05 00:13:05;;;;;;;15.77;11.93;;;;;;;17.19;84.61;95847.47;5007939;28;20582;-62
2023/10/05 00:15:32;;;;;;;13.15;10.20;;;;;;;16.97;84.99;95851.94;5012522;28;20219;-62
2023/10/05 00:17:59;;;;;;;10.93;9.70;;;;;;;16.81;85.65;95854.41;5017456;28;20200;-62
2023/10/05 00:20:32;;;;;;;16.08;9.55;;;;;;;16.64;86.67;95854.31;5016249;28;20314;-64
2023/10/05 00:23:07;;;;;;;11.40;10.07;;;;;;;16.56;87.10;95846.09;5019091;28;20583;-63
2023/10/05 00:25:35;;;;;;;11.20;9.95;;;;;;;16.63;87.25;95844.91;5016611;28;20211;-65
2023/10/05 00:28:05;;;;;;;13.73;11.00;;;;;;;16.64;87.13;95838.91;4997481;28;20208;-65
2023/10/05 00:30:31;;;;;;;10.73;9.63;;;;;;;16.66;87.17;95842.25;5007916;28;20655;-63
2023/10/05 00:32:59;;;;;;;17.35;10.07;;;;;;;16.75;86.14;95841.00;5008414;28;20259;-65
2023/10/05 00:35:29;;;;;;;16.02;9.98;;;;;;;16.71;86.30;95840.31;5020811;28;20203;-62
2023/10/05 00:38:04;;;;;;;11.82;9.90;;;;;;;16.62;86.94;95840.66;5016109;28;20208;-62
2023/10/05 00:40:35;;;;;;;11.38;10.13;;;;;;;16.65;86.69;95843.97;5013203;28;20305;-62
2023/10/05 00:43:11;;;;;;;13.73;9.43;;;;;;;16.57;86.92;95842.63;5017206;28;20242;-63
2023/10/05 00:45:39;;;;;;;17.30;9.80;;;;;;;16.73;87.08;95841.06;5012298;28;20254;-62
2023/10/05 00:48:13;;;;;;;13.40;9.82;;;;;;;16.80;86.95;95845.03;5014851;28;20240;-62
2023/10/05 00:50:40;;;;;;;14.43;10.10;;;;;;;16.64;86.52;95831.22;5016251;28;20257;-62
2023/10/05 00:53:08;;;;;;;13.15;10.55;;;;;;;16.78;86.77;95849.41;5022394;28;20664;-62
2023/10/05 00:55:36;;;;;;;18.45;10.98;;;;;;;16.82;86.44;95843.22;5019046;28;20686;-61
2023/10/05 00:58:06;;;;;;;15.55;10.43;;;;;;;16.87;86.48;95845.56;5019761;28;20755;-61
2023/10/05 01:00:43;;;;;;;11.82;9.23;;;;;;;16.76;86.38;95840.94;5021331;28;20227;-62
2023/10/05 01:03:25;;;;;;;14.35;9.90;;;;;;;16.55;87.09;95836.75;5017174;28;20281;-62
2023/10/05 01:06:09;;;;;;;10.80;9.40;;;;;;;16.51;87.38;95838.59;5007566;28;20215;-62
2023/10/05 01:08:40;;;;;;;14.75;9.88;;;;;;;16.57;87.90;95833.22;5011347;28;20286;-61
2023/10/05 01:11:14;;;;;;;13.15;9.25;;;;;;;16.58;87.23;95839.16;5009130;28;20631;-62
2023/10/05 01:13:41;;;;;;;10.00;9.05;;;;;;;16.54;87.20;95835.91;5010493;28;20208;-61
2023/10/05 01:16:16;;;;;;;10.45;9.07;;;;;;;16.52;87.93;95834.31;5016707;28;20232;-62
2023/10/05 01:18:44;;;;;;;14.60;10.68;;;;;;;16.59;87.92;95835.69;5011147;28;20192;-62
2023/10/05 01:21:10;;;;;;;18.23;9.90;;;;;;;16.59;87.35;95838.25;5014936;28;20226;-62
2023/10/05 01:23:39;;;;;;;13.77;9.35;;;;;;;16.60;87.12;95827.91;5017925;28;20206;-63
2023/10/05 01:26:10;;;;;;;9.85;8.95;;;;;;;16.63;87.56;95826.94;5017177;28;20211;-62
2023/10/05 01:28:37;;;;;;;10.27;9.20;;;;;;;16.71;86.65;95822.34;5009329;28;20203;-62
2023/10/05 01:31:07;;;;;;;11.45;9.70;;;;;;;16.72;86.57;95829.13;5012358;28;20701;-62
2023/10/05 01:33:34;;;;;;;13.48;9.52;;;;;;;16.77;85.96;95828.94;5019668;28;20247;-64
2023/10/05 01:36:03;;;;;;;11.95;8.68;;;;;;;16.74;86.13;95818.81;5016449;28;20223;-62
2023/10/05 01:38:37;;;;;;;11.65;8.93;;;;;;;16.77;85.66;95819.50;5010614;28;20211;-62
2023/10/05 01:41:06;;;;;;;11.23;9.93;;;;;;;16.70;85.38;95823.25;5007533;28;20327;-63
2023/10/05 01:43:34;;;;;;;12.65;9.63;;;;;;;16.46;86.47;95816.63;5008985;28;20236;-63
2023/10/05 01:46:04;;;;;;;11.27;8.30;;;;;;;16.58;86.98;95822.00;5009870;28;20220;-62
2023/10/05 01:48:31;;;;;;;12.77;9.70;;;;;;;16.34;88.46;95813.69;5023146;28;20614;-62
2023/10/05 01:51:02;;;;;;;11.68;8.43;;;;;;;16.46;86.91;95819.19;5019637;28;20211;-63
2023/10/05 01:53:32;;;;;;;12.63;8.98;;;;;;;16.33;88.13;95812.00;5019248;28;20609;-63
2023/10/05 01:55:59;;;;;;;10.85;9.15;;;;;;;16.12;89.63;95820.66;5010588;28;20208;-62
2023/10/05 01:58:27;;;;;;;22.35;10.38;;;;;;;15.97;89.38;95823.88;5013165;28;20232;-62
2023/10/05 02:00:56;;;;;;;12.32;9.20;;;;;;;16.17;88.57;95821.28;5019670;28;20381;-63
2023/10/05 02:03:23;;;;;;;9.07;8.20;;;;;;;15.92;90.39;95815.53;5018774;28;20201;-62
2023/10/05 02:05:56;;;;;;;10.68;9.68;;;;;;;15.88;90.83;95824.25;5009327;28;20239;-65
2023/10/05 02:08:22;;;;;;;9.65;8.75;;;;;;;16.11;89.18;95823.28;5004778;28;20204;-62
2023/10/05 02:10:50;;;;;;;13.32;8.93;;;;;;;16.28;88.12;95831.94;5012187;28;20215;-62
2023/10/05 02:13:18;;;;;;;12.15;9.50;;;;;;;16.45;86.96;95823.47;5017407;28;20204;-62
2023/10/05 02:15:48;;;;;;;12.20;8.57;;;;;;;16.45;87.02;95826.03;5013605;28;20247;-62
2023/10/05 02:18:23;;;;;;;14.45;8.95;;;;;;;16.42;86.89;95827.91;5009613;28;20212;-62
2023/10/05 02:20:56;;;;;;;20.25;9.10;;;;;;;16.44;87.18;95828.66;5010616;28;20720;-62
2023/10/05 02:23:25;;;;;;;9.38;8.43;;;;;;;16.39;86.84;95823.75;5005608;28;20200;-62
2023/10/05 02:25:57;;;;;;;11.13;8.70;;;;;;;16.27;88.02;95825.13;5005442;28;20200;-61
2023/10/05 02:28:26;;;;;;;12.95;8.32;;;;;;;16.27;88.01;95825.13;5011572;28;20232;-61
2023/10/05 02:30:59;;;;;;;10.73;8.50;;;;;;;16.07;88.83;95832.03;5016270;28;20228;-62
2023/10/05 02:33:27;;;;;;;10.63;8.88;;;;;;;15.87;89.76;95832.84;5021207;28;20295;-62
2023/10/05 02:35:59;;;;;;;10.65;8.25;;;;;;;15.69;91.02;95828.50;5021481;28;20266;-62
2023/10/05 02:38:28;;;;;;;11.10;8.65;;;;;;;15.67;91.05;95831.13;5020127;28;20199;-62
2023/10/05 02:41:04;;;;;;;13.43;8.85;;;;;;;15.65;91.55;95833.72;5018718;28;20234;-62
2023/10/05 02:43:38;;;;;;;15.73;9.02;;;;;;;15.60;91.34;95832.25;5009783;28;20231;-63
2023/10/05 02:46:10;;;;;;;15.25;9.20;;;;;;;15.60;90.43;95816.88;5005361;28;20236;-62
2023/10/05 02:48:39;;;;;;;10.32;8.95;;;;;;;15.70;90.45;95837.84;5004524;28;20205;-62
2023/10/05 02:51:06;;;;;;;12.25;8.57;;;;;;;15.62;90.48;95840.72;5003764;28;20205;-63
2023/10/05 02:53:41;;;;;;;13.25;8.48;;;;;;;15.59;90.45;95840.88;5004826;28;20294;-63
2023/10/05 02:56:22;;;;;;;10.32;8.80;;;;;;;15.57;91.22;95840.91;5003693;28;20278;-63
2023/10/05 02:58:52;;;;;;;16.25;8.63;;;;;;;15.45;92.86;95843.94;5017355;28;20207;-63
2023/10/05 03:01:21;;;;;;;14.60;10.82;;;;;;;15.48;92.13;95846.38;5021892;28;20661;-63
2023/10/05 03:03:50;;;;;;;14.48;9.30;;;;;;;15.54;91.39;95842.75;5018535;28;20204;-64
2023/10/05 03:06:17;;;;;;;10.98;9.93;;;;;;;15.62;90.94;95835.59;5019374;28;20196;-64
2023/10/05 03:08:46;;;;;;;10.68;9.63;;;;;;;15.40;91.39;95809.97;5019132;28;20209;-64
2023/10/05 03:11:13;;;;;;;19.38;10.80;;;;;;;15.60;91.80;95837.38;5016913;28;20230;-63
2023/10/05 03:13:40;;;;;;;22.90;11.00;;;;;;;15.74;90.42;95847.06;5013974;28;20633;-64
2023/10/05 03:16:10;;;;;;;15.30;11.10;;;;;;;15.63;89.80;95830.41;5013585;28;20641;-62
2023/10/05 03:18:41;;;;;;;18.58;11.57;;;;;;;15.56;90.36;95836.69;5012879;28;20209;-63
2023/10/05 03:21:13;;;;;;;12.77;10.38;;;;;;;15.61;90.60;95841.59;5011959;28;20247;-63
2023/10/05 03:23:42;;;;;;;11.40;9.80;;;;;;;15.70;90.36;95837.84;5015898;28;20283;-63
2023/10/05 03:26:13;;;;;;;16.08;11.48;;;;;;;15.57;90.47;95838.38;5011882;28;20204;-63
2023/10/05 03:28:41;;;;;;;15.52;10.90;;;;;;;15.46;90.90;95850.72;5007509;28;20205;-62
2023/10/05 03:31:24;;;;;;;16.52;11.13;;;;;;;15.20;92.63;95827.88;5010612;28;20278;-63
2023/10/05 03:33:52;;;;;;;21.92;11.38;;;;;;;15.37;92.13;95845.97;5019032;28;20257;-63
2023/10/05 03:36:19;;;;;;;13.23;10.90;;;;;;;15.35;92.88;95849.47;5014192;28;20216;-63
2023/10/05 03:38:55;;;;;;;19.88;11.65;;;;;;;15.32;91.82;95847.91;5010024;28;20239;-64
2023/10/05 03:41:26;;;;;;;14.10;11.13;;;;;;;15.31;92.56;95848.78;5008251;28;20230;-64
2023/10/05 03:43:53;;;;;;;13.07;11.77;;;;;;;15.24;91.94;95844.78;5018997;28;20246;-64
2023/10/05 03:46:20;;;;;;;19.83;11.48;;;;;;;15.32;92.06;95848.72;5012222;28;20668;-64
2023/10/05 03:48:47;;;;;;;14.77;10.90;;;;;;;15.30;91.48;95847.13;5013399;28;20200;-64
2023/10/05 03:51:16;;;;;;;17.40;11.25;;;;;;;15.27;91.93;95847.22;5005114;28;20203;-63
2023/10/05 03:53:48;;;;;;;18.27;10.88;;;;;;;15.15;92.18;95837.47;5006269;28;20737;-62
2023/10/05 03:56:18;;;;;;;23.70;11.82;;;;;;;15.14;92.45;95849.44;5013344;28;20294;-62
2023/10/05 03:58:46;;;;;;;18.20;11.23;;;;;;;15.03;92.31;95858.44;5009933;28;20196;-63
2023/10/05 04:01:13;;;;;;;20.17;11.10;;;;;;;15.19;90.10;95851.81;5010881;28;20289;-64
2023/10/05 04:03:40;;;;;;;20.45;11.95;;;;;;;15.26;89.95;95860.94;5003980;28;20633;-63
2023/10/05 04:06:17;;;;;;;20.77;12.55;;;;;;;15.09;91.02;95853.09;5008451;28;20682;-63
2023/10/05 04:08:48;;;;;;;22.05;16.48;;;;;;;14.89;92.00;95858.94;5004489;28;20243;-63
2023/10/05 04:11:15;;;;;;;34.42;22.25;;;;;;;14.79;92.86;95858.47;5015859;28;20290;-63
2023/10/05 04:13:42;;;;;;;36.53;20.00;;;;;;;14.78;93.06;95861.06;5012603;28;20282;-64
2023/10/05 04:16:17;;;;;;;17.45;13.65;;;;;;;14.82;92.91;95872.88;5016102;28;20632;-64
2023/10/05 04:18:46;;;;;;;14.30;11.45;;;;;;;14.76;92.69;95863.69;5012990;28;20200;-63
2023/10/05 04:21:13;;;;;;;12.48;11.23;;;;;;;14.77;92.51;95865.38;5015140;28;20311;-63
2023/10/05 04:23:42;;;;;;;23.30;12.45;;;;;;;14.69;92.84;95857.13;5007265;28;20197;-62
2023/10/05 04:26:10;;;;;;;30.33;21.55;;;;;;;14.82;92.65;95863.47;5012094;28;20254;-64
2023/10/05 04:28:41;;;;;;;34.80;21.63;;;;;;;14.74;93.88;95864.63;5010505;28;20208;-64
2023/10/05 04:31:12;;;;;;;34.78;21.33;;;;;;;14.75;93.13;95863.75;5009662;28;20251;-62
2023/10/05 04:33:39;;;;;;;27.02;20.75;;;;;;;14.66;93.12;95872.59;5024730;28;20210;-63
2023/10/05 04:36:06;;;;;;;24.50;14.98;;;;;;;14.63;93.97;95875.25;5017543;28;20201;-63
2023/10/05 04:38:33;;;;;;;23.90;12.77;;;;;;;14.72;93.36;95874.09;5013951;28;20291;-63
2023/10/05 04:40:59;;;;;;;32.40;13.48;;;;;;;14.74;92.73;95875.72;5017187;28;20239;-63
2023/10/05 04:43:27;;;;;;;22.23;13.63;;;;;;;14.79;92.59;95876.38;5018641;28;20236;-62
2023/10/05 04:45:54;;;;;;;27.30;14.00;;;;;;;14.75;92.92;95877.38;5009308;28;20784;-63
2023/10/05 04:48:23;;;;;;;24.33;14.23;;;;;;;14.68;93.20;95878.47;5006021;28;20295;-64
2023/10/05 04:50:51;;;;;;;21.23;13.07;;;;;;;14.68;93.93;95890.44;5006739;28;20208;-63
2023/10/05 04:53:20;;;;;;;29.83;13.50;;;;;;;14.73;93.28;95886.84;5006391;28;20201;-63
2023/10/05 04:55:47;;;;;;;18.85;13.35;;;;;;;14.86;92.25;95894.88;5012179;28;20685;-64
2023/10/05 04:58:22;;;;;;;23.95;12.60;;;;;;;14.84;92.19;95891.56;5010596;28;20200;-65
2023/10/05 05:01:04;;;;;;;22.65;13.45;;;;;;;14.87;91.91;95897.38;5005855;28;20239;-63
2023/10/05 05:03:48;;;;;;;22.75;13.95;;;;;;;14.95;91.89;95895.38;5006490;28;20228;-63
2023/10/05 05:06:15;;;;;;;19.90;14.40;;;;;;;14.91;92.42;95898.94;5007082;28;20734;-64
2023/10/05 05:08:43;;;;;;;21.80;13.18;;;;;;;15.22;90.56;95895.22;5005984;28;20286;-63
2023/10/05 05:11:18;;;;;;;29.00;13.95;;;;;;;15.13;89.65;95882.75;5011645;28;20730;-62
2023/10/05 05:13:46;;;;;;;27.80;14.35;;;;;;;15.31;89.38;95910.25;5012854;28;20199;-64
2023/10/05 05:16:15;;;;;;;23.23;12.85;;;;;;;15.41;88.11;95900.47;5023165;28;20207;-64
2023/10/05 05:18:42;;;;;;;18.40;13.55;;;;;;;15.35;88.95;95909.22;5020534;28;20218;-64
2023/10/05 05:21:11;;;;;;;25.23;12.13;;;;;;;15.51;87.82;95900.06;5012745;28;20231;-63
2023/10/05 05:23:38;;;;;;;32.40;13.38;;;;;;;15.67;87.66;95904.59;5019366;28;20214;-65
2023/10/05 05:26:09;;;;;;;23.77;12.52;;;;;;;15.73;87.15;95909.47;5008776;28;20663;-64
2023/10/05 05:28:37;;;;;;;18.63;11.50;;;;;;;15.74;86.34;95911.97;5013511;28;20597;-64
2023/10/05 05:31:11;;;;;;;24.60;12.38;;;;;;;15.70;86.35;95909.59;5006445;28;20217;-63
2023/10/05 05:33:39;;;;;;;25.13;11.48;;;;;;;15.90;86.21;95917.31;5015234;28;20207;-65
2023/10/05 05:36:10;;;;;;;27.88;11.60;;;;;;;16.31;84.27;95924.13;5011555;28;20640;-64
2023/10/05 05:38:39;;;;;;;15.27;9.80;;;;;;;16.60;82.28;95914.31;5014953;28;20210;-65
2023/10/05 05:41:11;;;;;;;15.57;10.20;;;;;;;16.76;81.61;95919.69;5022854;28;20319;-65
2023/10/05 05:43:39;;;;;;;23.98;9.70;;;;;;;16.99;80.42;95916.91;5017495;28;20323;-63
2023/10/05 05:46:10;;;;;;;13.75;10.07;;;;;;;17.30;78.71;95916.34;5018921;28;20294;-64
2023/10/05 05:48:37;;;;;;;23.70;10.23;;;;;;;17.44;77.58;95924.25;5017014;28;20707;-64
2023/10/05 05:51:11;;;;;;;22.42;10.48;;;;;;;17.53;76.89;95923.00;5018771;28;20231;-66
2023/10/05 05:53:38;;;;;;;25.50;9.85;;;;;;;17.63;76.29;95925.03;5013959;28;20204;-66
2023/10/05 05:56:05;;;;;;;15.57;8.65;;;;;;;17.60;76.73;95929.47;5019376;28;20218;-65
2023/10/05 05:58:32;;;;;;;21.77;8.55;;;;;;;17.58;76.14;95926.97;5015471;28;20254;-64
2023/10/05 06:00:59;;;;;;;17.73;8.07;;;;;;;17.65;75.63;95938.69;5015869;28;20304;-63
2023/10/05 06:03:27;;;;;;;11.70;8.35;;;;;;;17.78;74.01;95938.94;5018392;28;20195;-63
2023/10/05 06:05:54;;;;;;;17.17;8.00;;;;;;;17.82;73.99;95948.16;5020182;28;20204;-62
2023/10/05 06:08:23;;;;;;;21.95;7.75;;;;;;;17.89;73.43;95946.97;5015247;28;20644;-65
2023/10/05 06:10:51;;;;;;;11.43;6.97;;;;;;;18.00;71.98;95949.84;5010600;28;20201;-65
2023/10/05 06:13:19;;;;;;;12.25;5.80;;;;;;;18.03;72.28;95943.75;5019337;28;20207;-63
2023/10/05 06:15:46;;;;;;;11.65;6.00;;;;;;;18.12;72.05;95947.56;5018386;28;20210;-65
2023/10/05 06:18:13;;;;;;;11.73;6.45;;;;;;;18.32;70.59;95945.69;5017302;28;20286;-65
2023/10/05 06:20:40;;;;;;;16.90;5.18;;;;;;;18.79;67.83;95949.38;5012594;28;20280;-65
2023/10/05 06:23:07;;;;;;;10.60;5.20;;;;;;;19.58;65.47;95951.13;5018641;28;20199;-63
2023/10/05 06:25:35;;;;;;;12.13;4.68;;;;;;;20.47;63.96;95946.97;5015101;28;20236;-64
2023/10/05 06:28:01;;;;;;;6.88;4.55;;;;;;;21.23;60.16;95937.25;5010782;28;20318;-64
2023/10/05 06:30:28;;;;;;;7.28;4.63;;;;;;;21.64;58.85;95937.22;5009369;28;20255;-64
2023/10/05 06:32:55;;;;;;;11.60;5.05;;;;;;;22.22;55.88;95933.50;5009096;28;20253;-65
2023/10/05 06:35:21;;;;;;;7.13;4.15;;;;;;;22.33;55.80;95941.38;5013678;28;20619;-64
2023/10/05 06:37:49;;;;;;;13.05;4.80;;;;;;;21.97;56.52;95943.78;5018729;28;20200;-64
2023/10/05 06:40:21;;;;;;;8.95;5.22;;;;;;;21.42;58.71;95942.09;5009516;28;20633;-62
2023/10/05 06:42:49;;;;;;;12.68;4.97;;;;;;;20.96;59.61;95950.06;5021308;28;20240;-65
2023/10/05 06:45:17;;;;;;;9.68;4.22;;;;;;;20.78;58.31;95943.41;5020085;28;20211;-63
2023/10/05 06:47:44;;;;;;;5.78;4.38;;;;;;;20.66;59.65;95946.72;5017624;28;20682;-64
2023/10/05 06:50:11;;;;;;;7.43;3.92;;;;;;;20.71;59.55;95944.69;5012343;28;20207;-64
2023/10/05 06:52:39;;;;;;;8.90;4.65;;;;;;;21.71;59.70;95938.50;5014862;28;21970;-63
2023/10/05 06:55:07;;;;;;;10.30;3.95;;;;;;;22.56;54.92;95931.25;5020942;28;20923;-66
2023/10/05 06:57:36;;;;;;;4.80;4.03;;;;;;;22.58;55.63;95937.16;5020458;28;20761;-64
2023/10/05 07:00:13;;;;;;;6.07;4.18;;;;;;;22.32;56.02;95939.72;5014063;28;20682;-61
2023/10/05 07:02:40;;;;;;;7.07;4.75;;;;;;;22.00;54.49;95933.22;5008901;28;20227;-68
2023/10/05 07:05:08;;;;;;;5.32;4.57;;;;;;;21.60;55.18;95940.94;5009805;28;20287;-62
2023/10/05 07:07:35;;;;;;;9.63;4.47;;;;;;;21.23;56.39;95926.06;5017057;28;20256;-64
2023/10/05 07:10:03;;;;;;;5.80;3.95;;;;;;;21.16;56.94;95930.75;5012100;28;20230;-66
2023/10/05 07:12:31;;;;;;;10.35;4.43;;;;;;;21.75;55.99;95943.50;5004502;28;20207;-60
2023/10/05 07:14:58;;;;;;;11.00;4.32;;;;;;;22.98;51.53;95933.56;5005249;28;20296;-64
2023/10/05 07:17:26;;;;;;;6.40;3.80;;;;;;;23.12;51.18;95942.16;5004371;28;20647;-65
2023/10/05 07:19:54;;;;;;;4.97;4.57;;;;;;;22.69;52.85;95942.47;5014717;28;20204;-65
2023/10/05 07:22:21;;;;;;;11.00;4.28;;;;;;;22.38;53.42;95939.31;5022881;28;20231;-65
2023/10/05 07:24:48;;;;;;;14.75;4.00;;;;;;;22.14;54.44;95938.34;5008599;28;20224;-64
2023/10/05 07:27:15;;;;;;;8.35;4.68;;;;;;;22.06;55.59;95943.19;5016223;28;20209;-64
2023/10/05 07:29:44;;;;;;;13.50;4.82;;;;;;;22.02;54.06;95941.75;5017088;28;20204;-65
2023/10/05 07:32:12;;;;;;;11.52;5.65;;;;;;;22.01;54.83;95950.44;5006564;28;20220;-65
2023/10/05 07:34:41;;;;;;;10.90;4.30;;;;;;;22.11;53.01;95946.31;5004506;28;20712;-65
2023/10/05 07:37:10;;;;;;;16.23;4.75;;;;;;;22.02;53.42;95921.84;5015671;28;20281;-65
2023/10/05 07:39:37;;;;;;;9.32;4.57;;;;;;;22.89;51.94;95935.94;5007114;28;20204;-66
2023/10/05 07:42:04;;;;;;;7.03;4.93;;;;;;;24.62;48.25;95939.03;5008235;28;20226;-65
2023/10/05 07:44:31;;;;;;;7.85;4.75;;;;;;;27.12;41.89;95936.34;5003351;28;20681;-64
2023/10/05 07:46:58;;;;;;;12.90;4.28;;;;;;;29.56;37.31;95931.59;5005580;28;20204;-63
2023/10/05 07:49:24;;;;;;;10.90;4.50;;;;;;;31.55;32.15;95929.19;5008022;28;20197;-65
2023/10/05 07:51:52;;;;;;;9.07;4.25;;;;;;;33.46;29.15;95923.44;5005469;28;20262;-65
2023/10/05 07:54:20;;;;;;;16.10;4.55;;;;;;;35.11;26.91;95918.47;5012391;28;20640;-65
2023/10/05 07:56:46;;;;;;;12.18;5.97;;;;;;;36.30;25.73;95919.09;5018053;28;20204;-63
2023/10/05 07:59:14;;;;;;;12.80;5.60;;;;;;;37.41;24.20;95912.97;5015405;28;20205;-65
2023/10/05 08:01:41;;;;;;;11.15;4.53;;;;;;;37.84;23.37;95902.13;5011699;28;20302;-65
2023/10/05 08:04:11;;;;;;;10.13;6.25;;;;;;;38.15;23.03;95901.59;5019947;28;20207;-66
2023/10/05 08:06:38;;;;;;;7.68;4.75;;;;;;;38.45;22.71;95905.50;5014832;28;20196;-62
2023/10/05 08:09:07;;;;;;;5.18;4.68;;;;;;;38.94;21.77;95899.78;5020721;28;20207;-64
2023/10/05 08:11:34;;;;;;;14.40;5.07;;;;;;;38.78;21.52;95900.22;5022700;28;20295;-65
2023/10/05 08:14:04;;;;;;;10.88;4.97;;;;;;;38.57;22.33;95895.13;5020780;28;20200;-63
2023/10/05 08:16:30;;;;;;;8.23;5.05;;;;;;;38.24;22.50;95884.47;5017335;28;20204;-63
2023/10/05 08:18:57;;;;;;;8.82;4.70;;;;;;;37.98;22.99;95894.00;5025287;28;20285;-65
2023/10/05 08:21:24;;;;;;;15.63;5.28;;;;;;;37.64;22.98;95900.19;5020719;28;20310;-65
2023/10/05 08:23:51;;;;;;;11.15;5.22;;;;;;;37.49;23.13;95896.06;5007465;28;20212;-65
2023/10/05 08:26:19;;;;;;;8.25;5.82;;;;;;;37.36;23.15;95880.94;5018035;28;20681;-65
2023/10/05 08:28:49;;;;;;;10.45;5.32;;;;;;;37.22;23.89;95887.19;5024267;28;20196;-64
2023/10/05 08:31:22;;;;;;;14.23;5.30;;;;;;;37.07;24.26;95892.59;5023056;28;20296;-65
2023/10/05 08:33:50;;;;;;;8.05;5.75;;;;;;;36.46;24.65;95868.50;5016811;28;20207;-64
2023/10/05 08:36:17;;;;;;;7.65;5.47;;;;;;;36.21;25.21;95889.25;5005614;28;20204;-65
2023/10/05 08:38:47;;;;;;;18.55;6.85;;;;;;;36.03;25.74;95888.88;5008506;28;21044;-72
2023/10/05 08:41:31;;;;;;;14.00;6.57;;;;;;;35.42;26.37;95886.53;5003708;28;20226;-71
2023/10/05 08:43:58;;;;;;;8.05;5.80;;;;;;;34.74;26.33;95892.06;4992193;28;20340;-71
2023/10/05 08:46:26;;;;;;;15.02;5.85;;;;;;;34.02;27.76;95886.41;5013215;28;20255;-70
2023/10/05 08:48:55;;;;;;;12.23;6.03;;;;;;;33.49;28.82;95885.38;5007598;28;20294;-71
2023/10/05 08:51:24;;;;;;;7.85;5.75;;;;;;;32.99;29.13;95889.19;5014317;28;20257;-71
2023/10/05 08:53:55;;;;;;;56.90;43.92;;;;;;;32.49;30.30;95886.78;5010701;28;20209;-71
2023/10/05 08:56:24;;;;;;;70.75;49.03;;;;;;;31.98;30.97;95882.66;5016970;28;20745;-69
2023/10/05 08:58:53;;;;;;;17.70;11.38;;;;;;;31.55;32.02;95879.28;5020298;28;20213;-70
2023/10/05 09:01:24;;;;;;;28.58;22.20;;;;;;;31.08;32.26;95879.75;5016457;28;20227;-70
2023/10/05 09:04:01;;;;;;;13.32;9.13;;;;;;;30.57;33.37;95878.00;5007526;28;20655;-66
2023/10/05 09:06:30;;;;;;;24.35;18.35;;;;;;;29.71;35.66;95880.34;5007820;28;20274;-68
2023/10/05 09:09:07;;;;;;;26.30;14.02;;;;;;;29.16;36.45;95870.88;5007467;28;20215;-68
2023/10/05 09:11:35;;;;;;;21.52;14.63;;;;;;;28.63;37.06;95880.13;5018277;28;20230;-70
2023/10/05 09:14:12;;;;;;;11.20;8.02;;;;;;;28.32;38.42;95863.00;5011517;28;20204;-70
2023/10/05 09:16:42;;;;;;;10.48;8.35;;;;;;;28.06;39.09;95871.41;5016236;28;20735;-69
2023/10/05 09:19:12;;;;;;;20.35;8.13;;;;;;;27.93;39.44;95863.03;4991905;28;20751;-68
2023/10/05 09:21:50;;;;;;;12.05;7.38;;;;;;;27.40;40.61;95859.94;4989836;28;20649;-69
2023/10/05 09:24:23;;;;;;;7.60;6.80;;;;;;;27.42;40.83;95858.84;4980297;28;20640;-72
2023/10/05 09:26:53;;;;;;;12.65;6.70;;;;;;;27.37;41.21;95855.81;5006407;28;20204;-68
2023/10/05 09:29:21;;;;;;;11.43;7.03;;;;;;;27.31;41.27;95845.88;5018363;28;20204;-70
2023/10/05 09:31:50;;;;;;;15.93;6.55;;;;;;;27.28;41.00;95851.38;5019209;28;20219;-71
2023/10/05 09:34:20;;;;;;;9.25;7.70;;;;;;;27.25;42.04;95851.63;5020454;28;20299;-69
2023/10/05 09:36:47;;;;;;;8.85;6.85;;;;;;;27.05;41.37;95853.38;5017833;28;20211;-67
2023/10/05 09:39:16;;;;;;;7.32;6.50;;;;;;;26.69;42.93;95846.91;5017320;28;20646;-68
2023/10/05 09:41:50;;;;;;;8.85;6.25;;;;;;;26.69;42.79;95841.69;5019113;28;20203;-73
2023/10/05 09:44:19;;;;;;;9.60;7.68;;;;;;;26.36;43.81;95845.38;5013181;28;20705;-68
2023/10/05 09:46:49;;;;;;;9.50;6.45;;;;;;;26.22;44.45;95840.47;5011972;28;20204;-70
2023/10/05 09:49:17;;;;;;;15.35;7.03;;;;;;;26.40;44.30;95845.94;5018512;28;20875;-70
2023/10/05 09:51:48;;;;;;;8.32;6.88;;;;;;;26.49;43.75;95839.94;5012660;28;20215;-69
2023/10/05 09:54:15;;;;;;;10.43;7.47;;;;;;;26.34;44.43;95834.25;5005031;28;20197;-70
2023/10/05 09:56:42;;;;;;;10.00;6.55;;;;;;;26.37;44.20;95836.59;5006620;28;20258;-70
2023/10/05 09:59:15;;;;;;;11.43;7.30;;;;;;;26.24;44.50;95830.72;5006625;28;20674;-69
2023/10/05 10:01:47;;;;;;;9.30;7.18;;;;;;;26.13;44.62;95833.41;5006130;28;20232;-70
2023/10/05 10:04:34;;;;;;;10.30;7.28;;;;;;;26.26;44.10;95823.59;5010124;28;20306;-72
2023/10/05 10:07:05;;;;;;;7.28;6.50;;;;;;;25.94;44.85;95817.66;5015066;28;20214;-69
2023/10/05 10:09:32;;;;;;;10.57;6.13;;;;;;;25.72;45.68;95816.81;5006427;28;20197;-71
2023/10/05 10:11:59;;;;;;;15.40;6.60;;;;;;;25.37;46.51;95803.19;5006166;28;20675;-71
2023/10/05 10:14:26;;;;;;;10.68;7.03;;;;;;;25.34;46.79;95808.63;5008487;28;20224;-71
2023/10/05 10:17:00;;;;;;;10.45;6.72;;;;;;;25.31;46.75;95814.06;5014442;28;20702;-70
2023/10/05 10:19:28;;;;;;;7.97;6.82;;;;;;;25.40;46.78;95797.75;5014149;28;20203;-71
2023/10/05 10:22:00;;;;;;;11.38;7.18;;;;;;;25.54;46.05;95799.22;5018951;28;20307;-72
2023/10/05 10:24:30;;;;;;;8.48;6.60;;;;;;;25.58;45.71;95798.00;5022210;28;20200;-69
2023/10/05 10:27:07;;;;;;;20.45;7.00;;;;;;;25.61;45.66;95793.38;5021289;28;20223;-70
2023/10/05 10:29:42;;;;;;;13.75;6.20;;;;;;;25.82;45.69;95795.22;5020299;28;20751;-71
2023/10/05 10:32:19;;;;;;;10.63;7.32;;;;;;;25.81;45.29;95785.75;5023118;28;20230;-70
2023/10/05 10:34:50;;;;;;;11.55;6.80;;;;;;;25.83;45.05;95791.66;5019318;28;20692;-71
2023/10/05 10:37:36;;;;;;;7.30;6.60;;;;;;;25.72;45.31;95780.38;5020508;28;20258;-69
2023/10/05 10:40:11;;;;;;;10.05;7.30;;;;;;;25.74;45.19;95775.00;5010543;28;20567;-68
2023/10/05 10:42:51;;;;;;;8.32;6.13;;;;;;;25.82;45.34;95771.78;5006318;28;20231;-69
2023/10/05 10:45:23;;;;;;;7.47;6.05;;;;;;;25.69;45.20;95769.38;5020475;28;20207;-69
2023/10/05 10:47:53;;;;;;;7.50;6.53;;;;;;;25.86;45.22;95758.38;5020605;28;20246;-69
2023/10/05 10:50:24;;;;;;;9.98;7.45;;;;;;;25.98;44.83;95757.38;5015014;28;20196;-68
2023/10/05 10:52:52;;;;;;;10.52;6.22;;;;;;;26.13;44.93;95755.25;5013396;28;20265;-71
2023/10/05 10:55:21;;;;;;;12.80;6.65;;;;;;;26.23;44.40;95750.88;5015859;28;20584;-71
2023/10/05 10:57:53;;;;;;;10.45;6.60;;;;;;;26.28;43.89;95743.50;5015250;28;20278;-70
2023/10/05 11:00:54;;;;;;;12.13;6.20;;;;;;;26.05;44.59;95744.63;5012032;28;20636;-70
2023/10/05 11:03:24;;;;;;;9.65;6.93;;;;;;;25.92;44.78;95741.44;5004619;28;20223;-71
2023/10/05 11:05:54;;;;;;;12.27;7.18;;;;;;;25.92;44.62;95733.63;5008556;28;20282;-70
2023/10/05 11:08:21;;;;;;;10.52;7.47;;;;;;;25.88;44.85;95725.22;5017528;28;20662;-71
2023/10/05 11:11:00;;;;;;;16.45;8.27;;;;;;;25.93;45.24;95725.69;5010087;28;20287;-69
2023/10/05 11:13:27;;;;;;;16.30;6.93;;;;;;;26.07;44.98;95725.31;5018460;28;20191;-72
2023/10/05 11:15:59;;;;;;;9.23;7.07;;;;;;;25.90;44.49;95702.50;5016920;28;20274;-71
2023/10/05 11:18:30;;;;;;;13.40;7.32;;;;;;;25.92;44.92;95720.59;5012309;28;20200;-70
2023/10/05 11:21:06;;;;;;;13.48;6.80;;;;;;;25.88;44.77;95701.78;5015996;28;20203;-71
2023/10/05 11:23:43;;;;;;;10.07;7.00;;;;;;;26.10;44.52;95711.22;5010277;28;20277;-69
2023/10/05 11:26:17;;;;;;;7.68;6.88;;;;;;;26.04;44.33;95706.50;5005867;28;21183;-71
2023/10/05 11:28:46;;;;;;;7.68;6.97;;;;;;;25.94;44.80;95705.66;5006309;28;20586;-72
2023/10/05 11:31:13;;;;;;;8.23;6.53;;;;;;;25.88;44.91;95704.41;5004623;28;20286;-70
2023/10/05 11:33:42;;;;;;;15.52;6.88;;;;;;;25.84;45.00;95700.41;5006143;28;20303;-70
2023/10/05 11:36:19;;;;;;;11.90;6.22;;;;;;;25.87;44.51;95696.72;5006766;28;20208;-71